Time;durP1;ratioP1;P1;durP2;ratioP2;P2;SDS_P1;SDS_P2;PMS_P1;PMS_P2;Temp;Humidity;BMP_temperature;BMP_pressure;BME280_temperature;BME280_humidity;BME280_pressure;Samples;Min_cycle;Max_cycle;Signal;HPM_P1;HPM_P2
2022/07/31 00:00:05;;;;;;;;;;;25.00;65.70;24.90;99806.00;;;;336667;28;83406;-89
2022/07/31 00:00:18;;;;;;;;;;;25.00;65.60;24.80;99793.00;;;;335882;28;95731;-88
2022/07/31 00:00:30;;;;;;;;;;;25.00;65.90;24.80;99800.00;;;;332832;29;83430;-89
2022/07/31 00:00:42;;;;;;;;;;;25.00;66.00;24.80;99798.00;;;;334384;29;97475;-88
2022/07/31 00:00:53;;;;;;;;;;;25.00;66.10;24.80;99797.00;;;;335420;29;82752;-87
2022/07/31 00:01:05;;;;;;;;;;;25.00;66.00;24.90;99801.00;;;;334493;29;96570;-89
2022/07/31 00:01:17;;;;;;;;;;;25.00;65.60;24.90;99797.00;;;;337915;28;83493;-89
2022/07/31 00:01:29;;;;;;;;;;;24.90;65.50;24.90;99800.00;;;;334621;29;93961;-89
2022/07/31 00:01:41;;;;;;;;;;;25.00;65.90;24.80;99805.00;;;;335042;29;83564;-89
2022/07/31 00:01:53;;;;;;;;;;;24.90;65.90;24.70;99796.00;;;;336942;28;96061;-89
2022/07/31 00:02:05;;;;;;;;;;;24.90;66.10;24.70;99798.00;;;;335106;29;82659;-89
2022/07/31 00:02:17;;;;;;;;;;;24.90;66.00;24.80;99794.00;;;;334659;29;95902;-89
2022/07/31 00:02:29;;;;;;;;;;;24.90;66.00;24.80;99794.00;;;;335330;29;82587;-89
2022/07/31 00:02:41;;;;;;;;;;;24.90;65.80;24.90;99795.00;;;;334617;29;94145;-88
2022/07/31 00:02:53;;;;;;;;;;;24.90;65.60;24.90;99799.00;;;;335371;29;82640;-89
2022/07/31 00:03:05;;;;;;;;;;;24.90;65.50;24.90;99798.00;;;;335645;28;94249;-88
2022/07/31 00:03:17;;;;;;;;;;;24.90;65.60;24.80;99799.00;;;;335248;29;82672;-89
2022/07/31 00:03:29;;;;;;;;;;;24.90;65.80;24.80;99798.00;;;;334317;29;95345;-89
2022/07/31 00:03:41;;;;;;;;;;;24.90;65.90;24.70;99798.00;;;;335354;29;83549;-89
2022/07/31 00:03:53;;;;;;;;;;;24.90;66.00;24.80;99804.00;;;;334381;29;95329;-89
2022/07/31 00:04:05;;;;;;;;;;;24.90;66.10;24.80;99799.00;;;;336599;28;83402;-89
2022/07/31 00:04:17;;;;;;;;;;;24.90;66.00;24.80;99803.00;;;;335920;28;96895;-89
2022/07/31 00:04:29;;;;;;;;;;;24.90;65.70;24.80;99796.00;;;;336051;28;83561;-89
2022/07/31 00:04:40;;;;;;;;;;;24.80;65.80;24.70;99801.00;;;;336299;28;96458;-89
2022/07/31 00:04:52;;;;;;;;;;;24.90;66.00;24.70;99795.00;;;;334033;29;83427;-89
2022/07/31 00:05:05;;;;;;;;;;;24.90;66.20;24.60;99803.00;;;;332027;29;95857;-89
2022/07/31 00:05:16;;;;;;;;;;;24.90;66.20;24.60;99798.00;;;;332723;29;82486;-88
2022/07/31 00:05:29;;;;;;;;;;;24.90;66.20;24.60;99795.00;;;;333325;29;94254;-88
2022/07/31 00:05:41;;;;;;;;;;;24.90;66.20;24.70;99805.00;;;;334130;29;83559;-89
2022/07/31 00:05:53;;;;;;;;;;;24.90;66.30;24.70;99801.00;;;;333289;29;96918;-89
2022/07/31 00:06:06;;;;;;;;;;;24.90;66.10;24.70;99797.00;;;;335147;29;83496;-88
2022/07/31 00:06:19;;;;;;;;;;;24.80;66.20;24.70;99804.00;;;;334604;29;96129;-89
2022/07/31 00:06:31;;;;;;;;;;;24.80;65.90;24.70;99808.00;;;;334037;29;83487;-89
2022/07/31 00:06:43;;;;;;;;;;;24.80;65.60;24.70;99801.00;;;;334456;28;95532;-89
2022/07/31 00:06:55;;;;;;;;;;;24.80;65.60;24.70;99797.00;;;;335296;29;83485;-89
2022/07/31 00:07:06;;;;;;;;;;;24.80;65.60;24.80;99803.00;;;;331973;29;96066;-89
2022/07/31 00:07:18;;;;;;;;;;;24.80;65.60;24.80;99799.00;;;;336462;28;83576;-89
2022/07/31 00:07:30;;;;;;;;;;;24.80;65.60;24.80;99791.00;;;;335786;28;96449;-88
2022/07/31 00:07:42;;;;;;;;;;;24.80;65.50;24.70;99801.00;;;;335402;29;83345;-89
2022/07/31 00:07:54;;;;;;;;;;;24.80;65.90;24.70;99805.00;;;;336110;28;96348;-89
2022/07/31 00:08:05;;;;;;;;;;;24.80;66.00;24.70;99800.00;;;;335599;29;83456;-89
2022/07/31 00:08:17;;;;;;;;;;;24.80;66.20;24.70;99799.00;;;;336372;28;93196;-89
2022/07/31 00:08:29;;;;;;;;;;;24.80;66.10;24.70;99807.00;;;;335302;28;83317;-89
2022/07/31 00:08:41;;;;;;;;;;;24.80;66.10;24.70;99802.00;;;;335562;28;97444;-89
2022/07/31 00:08:53;;;;;;;;;;;24.80;66.10;24.70;99802.00;;;;336581;28;83485;-89
2022/07/31 00:09:04;;;;;;;;;;;24.80;65.90;24.70;99800.00;;;;334452;29;96271;-88
2022/07/31 00:09:36;;;;;;;;;;;24.80;65.60;24.60;99799.00;;;;336704;28;83641;-89
2022/07/31 00:10:05;;;;;;;;;;;24.80;66.20;24.70;99801.00;;;;336126;28;96384;-89
2022/07/31 00:10:17;;;;;;;;;;;24.80;65.70;24.60;99800.00;;;;333277;29;82471;-89
2022/07/31 00:10:29;;;;;;;;;;;24.80;65.90;24.60;99803.00;;;;333603;29;96172;-88
2022/07/31 00:10:40;;;;;;;;;;;24.80;66.30;24.70;99802.00;;;;335485;29;83543;-89
2022/07/31 00:10:52;;;;;;;;;;;24.80;66.30;24.80;99799.00;;;;334745;29;93900;-89
2022/07/31 00:11:04;;;;;;;;;;;24.80;66.10;24.80;99799.00;;;;336867;28;83980;-89
2022/07/31 00:11:16;;;;;;;;;;;24.80;66.00;24.80;99803.00;;;;336217;28;96250;-88
2022/07/31 00:11:28;;;;;;;;;;;24.80;66.00;24.80;99799.00;;;;336899;28;83479;-87
2022/07/31 00:11:41;;;;;;;;;;;24.80;66.40;24.70;99798.00;;;;337505;28;95401;-89
2022/07/31 00:11:53;;;;;;;;;;;24.80;66.40;24.80;99796.00;;;;334414;29;82529;-89
2022/07/31 00:12:05;;;;;;;;;;;24.80;66.10;24.70;99797.00;;;;333455;29;96432;-88
2022/07/31 00:12:17;;;;;;;;;;;24.80;66.20;24.80;99797.00;;;;336085;28;83960;-89
2022/07/31 00:12:29;;;;;;;;;;;24.80;66.30;24.80;99800.00;;;;336230;28;97060;-89
2022/07/31 00:12:41;;;;;;;;;;;24.80;65.90;24.70;99796.00;;;;339574;28;82538;-89
2022/07/31 00:12:53;;;;;;;;;;;24.80;65.70;24.70;99798.00;;;;334958;29;96418;-89
2022/07/31 00:13:04;;;;;;;;;;;24.80;66.10;24.70;99799.00;;;;333231;29;82474;-89
2022/07/31 00:13:16;;;;;;;;;;;24.80;66.00;24.70;99797.00;;;;336081;28;96305;-88
2022/07/31 00:13:28;;;;;;;;;;;24.80;65.90;24.80;99798.00;;;;335630;29;82573;-89
2022/07/31 00:14:00;;;;;;;;;;;24.80;65.60;24.70;99801.00;;;;333649;29;96136;-88
2022/07/31 00:14:12;;;;;;;;;;;24.70;65.60;24.80;99795.00;;;;333056;29;82537;-89
2022/07/31 00:14:23;;;;;;;;;;;24.80;64.90;24.80;99793.00;;;;332165;29;97012;-87
2022/07/31 00:14:35;;;;;;;;;;;24.80;64.80;24.90;99793.00;;;;335027;29;83592;-88
2022/07/31 00:14:48;;;;;;;;;;;24.80;64.80;25.00;99793.00;;;;333372;29;97450;-89
2022/07/31 00:15:01;;;;;;;;;;;24.80;64.70;24.90;99797.00;;;;335269;29;83416;-87
2022/07/31 00:15:12;;;;;;;;;;;24.80;64.90;24.90;99791.00;;;;334639;29;94734;-89
2022/07/31 00:15:24;;;;;;;;;;;24.80;64.90;24.90;99795.00;;;;335317;29;83469;-89
2022/07/31 00:15:36;;;;;;;;;;;24.80;64.80;24.90;99795.00;;;;334505;29;97557;-88
2022/07/31 00:15:48;;;;;;;;;;;24.80;64.70;24.90;99797.00;;;;336511;28;83519;-89
2022/07/31 00:16:00;;;;;;;;;;;24.80;64.70;24.90;99790.00;;;;333308;29;94277;-88
2022/07/31 00:16:11;;;;;;;;;;;24.80;64.70;24.80;99796.00;;;;336134;28;83553;-89
2022/07/31 00:16:23;;;;;;;;;;;24.80;64.80;24.80;99796.00;;;;334446;29;95738;-89
2022/07/31 00:16:35;;;;;;;;;;;24.80;64.40;24.90;99802.00;;;;334078;29;82524;-89
2022/07/31 00:16:47;;;;;;;;;;;24.80;64.30;24.90;99794.00;;;;333310;29;96513;-89
2022/07/31 00:16:58;;;;;;;;;;;24.80;64.30;24.90;99794.00;;;;335387;29;82482;-89
2022/07/31 00:17:11;;;;;;;;;;;24.80;64.30;24.90;99792.00;;;;334644;29;94767;-89
2022/07/31 00:17:22;;;;;;;;;;;24.80;64.30;25.00;99797.00;;;;336724;28;84029;-88
2022/07/31 00:17:36;;;;;;;;;;;24.80;64.30;24.90;99788.00;;;;335708;28;94789;-88
2022/07/31 00:17:48;;;;;;;;;;;24.80;64.20;24.80;99792.00;;;;337974;28;83319;-88
2022/07/31 00:17:59;;;;;;;;;;;24.80;64.30;24.80;99800.00;;;;335655;28;95724;-88
2022/07/31 00:18:11;;;;;;;;;;;24.80;64.30;24.90;99796.00;;;;334039;29;85394;-88
2022/07/31 00:18:23;;;;;;;;;;;24.80;64.20;24.90;99795.00;;;;334559;29;97347;-88
2022/07/31 00:18:35;;;;;;;;;;;24.80;64.20;24.90;99793.00;;;;335269;29;82608;-88
2022/07/31 00:18:46;;;;;;;;;;;24.80;64.20;24.90;99806.00;;;;333208;29;96731;-88
2022/07/31 00:18:58;;;;;;;;;;;24.80;64.30;25.00;99795.00;;;;333904;29;82661;-89
2022/07/31 00:19:10;;;;;;;;;;;24.80;64.10;25.00;99800.00;;;;332055;29;96046;-89
2022/07/31 00:19:22;;;;;;;;;;;24.80;64.10;25.00;99795.00;;;;335297;29;83553;-89
2022/07/31 00:19:34;;;;;;;;;;;24.80;64.10;25.00;99802.00;;;;336820;28;95957;-89
2022/07/31 00:19:46;;;;;;;;;;;24.80;64.00;24.90;99799.00;;;;336678;28;82547;-88
2022/07/31 00:19:57;;;;;;;;;;;24.80;64.10;24.80;99799.00;;;;334540;29;97420;-89
2022/07/31 00:20:13;;;;;;;;;;;24.80;64.10;24.80;99800.00;;;;336774;28;82454;-88
2022/07/31 00:20:25;;;;;;;;;;;24.80;64.10;24.80;99795.00;;;;334492;29;96951;-88
2022/07/31 00:20:36;;;;;;;;;;;24.80;63.90;24.80;99792.00;;;;336580;28;83413;-89
2022/07/31 00:20:48;;;;;;;;;;;24.80;63.90;24.80;99801.00;;;;334491;28;96534;-89
2022/07/31 00:21:01;;;;;;;;;;;24.80;63.90;24.90;99794.00;;;;333953;29;83432;-88
2022/07/31 00:21:13;;;;;;;;;;;24.80;64.00;25.00;99788.00;;;;333294;29;96468;-89
2022/07/31 00:21:25;;;;;;;;;;;24.80;64.00;24.90;99791.00;;;;334011;29;83415;-88
2022/07/31 00:21:36;;;;;;;;;;;24.80;64.00;25.00;99792.00;;;;335838;28;97277;-87
2022/07/31 00:21:48;;;;;;;;;;;24.80;63.90;24.90;99789.00;;;;333911;29;82631;-89
2022/07/31 00:22:00;;;;;;;;;;;24.80;64.10;24.90;99793.00;;;;333920;29;95369;-89
2022/07/31 00:22:12;;;;;;;;;;;24.80;64.10;24.80;99798.00;;;;333845;29;82676;-89
2022/07/31 00:22:24;;;;;;;;;;;24.80;64.10;24.80;99792.00;;;;334412;29;95686;-88
2022/07/31 00:22:36;;;;;;;;;;;24.80;64.00;24.80;99791.00;;;;337769;28;82702;-89
2022/07/31 00:22:49;;;;;;;;;;;24.80;63.90;24.90;99791.00;;;;333230;29;95319;-89
2022/07/31 00:23:01;;;;;;;;;;;24.80;63.80;24.90;99789.00;;;;335274;29;83306;-88
2022/07/31 00:23:12;;;;;;;;;;;24.80;63.80;24.90;99795.00;;;;335972;28;91992;-89
2022/07/31 00:23:29;;;;;;;;;;;24.80;63.70;25.00;99793.00;;;;332733;29;83484;-89
2022/07/31 00:23:41;;;;;;;;;;;24.80;63.60;25.00;99796.00;;;;334414;28;96007;-89
2022/07/31 00:23:53;;;;;;;;;;;24.80;63.70;25.00;99793.00;;;;334041;29;83420;-89
2022/07/31 00:24:05;;;;;;;;;;;24.80;63.70;25.10;99793.00;;;;331900;29;96820;-89
2022/07/31 00:24:17;;;;;;;;;;;24.80;63.70;25.10;99796.00;;;;334053;29;83439;-89
2022/07/31 00:24:28;;;;;;;;;;;24.80;63.80;25.10;99800.00;;;;333131;29;95792;-88
2022/07/31 00:24:41;;;;;;;;;;;24.80;63.70;25.10;99796.00;;;;332842;29;83615;-88
2022/07/31 00:24:52;;;;;;;;;;;24.90;63.60;25.10;99795.00;;;;334620;29;93308;-88
2022/07/31 00:25:05;;;;;;;;;;;24.80;63.50;25.00;99794.00;;;;333790;29;82599;-88
2022/07/31 00:25:17;;;;;;;;;;;24.90;63.70;25.00;99791.00;;;;330733;29;95885;-89
2022/07/31 00:25:30;;;;;;;;;;;24.80;63.60;25.00;99799.00;;;;335079;29;83597;-89
2022/07/31 00:25:42;;;;;;;;;;;24.90;63.60;24.90;99795.00;;;;334364;29;95590;-89
2022/07/31 00:25:54;;;;;;;;;;;24.80;63.70;25.00;99794.00;;;;332751;29;83442;-89
2022/07/31 00:26:06;;;;;;;;;;;24.80;63.80;25.00;99795.00;;;;331869;29;97690;-89
2022/07/31 00:26:18;;;;;;;;;;;24.80;63.70;25.00;99795.00;;;;334072;29;83415;-89
2022/07/31 00:26:30;;;;;;;;;;;24.80;63.70;25.00;99789.00;;;;331943;29;95683;-89
2022/07/31 00:26:42;;;;;;;;;;;24.90;63.70;25.00;99788.00;;;;335100;29;82615;-88
2022/07/31 00:26:54;;;;;;;;;;;24.90;63.60;25.00;99799.00;;;;331945;29;96463;-89
2022/07/31 00:27:05;;;;;;;;;;;24.80;63.60;24.90;99793.00;;;;335168;29;83520;-89
2022/07/31 00:27:17;;;;;;;;;;;24.80;63.70;24.80;99791.00;;;;334537;29;96258;-89
2022/07/31 00:27:29;;;;;;;;;;;24.80;63.60;24.80;99791.00;;;;335107;29;83965;-89
2022/07/31 00:27:41;;;;;;;;;;;24.80;63.60;24.90;99794.00;;;;333190;29;97468;-88
2022/07/31 00:27:53;;;;;;;;;;;24.80;63.50;24.90;99793.00;;;;333847;29;83598;-88
2022/07/31 00:28:05;;;;;;;;;;;24.80;63.60;24.80;99792.00;;;;334571;29;94148;-88
2022/07/31 00:28:17;;;;;;;;;;;24.80;63.60;24.90;99791.00;;;;335370;29;83405;-89
2022/07/31 00:28:29;;;;;;;;;;;24.80;63.70;25.00;99788.00;;;;334553;29;96006;-88
2022/07/31 00:28:40;;;;;;;;;;;24.80;63.60;25.00;99793.00;;;;337899;28;83439;-89
2022/07/31 00:28:52;;;;;;;;;;;24.80;63.50;25.00;99788.00;;;;333243;29;97351;-88
2022/07/31 00:29:04;;;;;;;;;;;24.80;63.50;24.90;99789.00;;;;336637;28;83458;-89
2022/07/31 00:29:16;;;;;;;;;;;24.80;63.60;24.90;99798.00;;;;334706;29;93191;-89
2022/07/31 00:29:29;;;;;;;;;;;24.80;63.60;25.00;99791.00;;;;335305;29;82589;-89
2022/07/31 00:29:41;;;;;;;;;;;24.80;63.40;25.00;99794.00;;;;333104;29;94740;-88
2022/07/31 00:29:53;;;;;;;;;;;24.80;63.40;25.00;99789.00;;;;334036;29;83488;-88
2022/07/31 00:30:05;;;;;;;;;;;24.80;63.40;25.00;99792.00;;;;332029;29;93984;-89
2022/07/31 00:30:17;;;;;;;;;;;24.80;63.50;25.00;99795.00;;;;335347;29;82552;-89
2022/07/31 00:30:29;;;;;;;;;;;24.80;63.50;25.00;99788.00;;;;334545;29;97253;-89
2022/07/31 00:30:41;;;;;;;;;;;24.80;63.40;25.00;99787.00;;;;332651;29;83620;-89
2022/07/31 00:30:53;;;;;;;;;;;24.80;63.40;24.90;99795.00;;;;335353;28;94373;-89
2022/07/31 00:31:05;;;;;;;;;;;24.90;63.50;24.80;99793.00;;;;335143;29;82613;-89
2022/07/31 00:31:17;;;;;;;;;;;24.80;63.60;24.90;99793.00;;;;333414;29;93770;-88
2022/07/31 00:31:29;;;;;;;;;;;24.80;63.50;24.90;99792.00;;;;333997;29;82588;-89
2022/07/31 00:31:40;;;;;;;;;;;24.80;63.30;24.90;99794.00;;;;331980;29;94273;-89
2022/07/31 00:31:52;;;;;;;;;;;24.80;63.30;24.90;99792.00;;;;336499;28;82632;-89
2022/07/31 00:32:05;;;;;;;;;;;24.80;63.30;24.80;99798.00;;;;334331;29;95668;-89
2022/07/31 00:32:16;;;;;;;;;;;24.80;63.50;24.80;99792.00;;;;335341;29;83433;-89
2022/07/31 00:32:28;;;;;;;;;;;24.80;63.70;24.90;99789.00;;;;335887;28;97221;-89
2022/07/31 00:32:40;;;;;;;;;;;24.80;63.50;24.90;99788.00;;;;335250;29;83469;-89
2022/07/31 00:32:52;;;;;;;;;;;24.80;63.50;25.00;99792.00;;;;334608;29;94315;-89
2022/07/31 00:33:04;;;;;;;;;;;24.80;63.50;25.00;99789.00;;;;336413;28;83581;-88
2022/07/31 00:33:16;;;;;;;;;;;24.80;63.50;24.80;99786.00;;;;333026;29;95927;-88
2022/07/31 00:33:28;;;;;;;;;;;24.80;63.70;24.90;99791.00;;;;332718;29;83483;-89
2022/07/31 00:33:41;;;;;;;;;;;24.80;63.60;24.80;99796.00;;;;333009;29;95851;-88
2022/07/31 00:33:53;;;;;;;;;;;24.80;63.60;24.90;99788.00;;;;335305;29;83405;-89
2022/07/31 00:34:05;;;;;;;;;;;24.80;63.40;24.90;99795.00;;;;335817;28;96533;-89
2022/07/31 00:34:16;;;;;;;;;;;24.80;63.50;24.90;99797.00;;;;334920;29;83868;-88
2022/07/31 00:34:28;;;;;;;;;;;24.80;63.70;24.90;99792.00;;;;334914;28;94466;-89
2022/07/31 00:34:41;;;;;;;;;;;24.80;63.70;24.90;99790.00;;;;334688;29;83585;-88
2022/07/31 00:34:53;;;;;;;;;;;24.80;63.70;24.80;99790.00;;;;333330;29;93297;-88
2022/07/31 00:35:05;;;;;;;;;;;24.80;63.70;24.80;99792.00;;;;335267;29;83371;-89
2022/07/31 00:35:19;;;;;;;;;;;24.80;63.70;24.70;99788.00;;;;334461;29;96467;-89
2022/07/31 00:35:31;;;;;;;;;;;24.80;63.60;24.70;99792.00;;;;335354;29;82402;-88
2022/07/31 00:35:42;;;;;;;;;;;24.80;63.60;24.70;99792.00;;;;334552;29;96213;-89
2022/07/31 00:35:54;;;;;;;;;;;24.80;63.60;24.70;99791.00;;;;335358;29;83457;-88
2022/07/31 00:36:06;;;;;;;;;;;24.80;63.60;24.70;99792.00;;;;335921;28;97584;-90
2022/07/31 00:36:18;;;;;;;;;;;24.80;63.70;24.70;99785.00;;;;335664;29;83342;-89
2022/07/31 00:36:30;;;;;;;;;;;24.80;63.60;24.80;99789.00;;;;336159;28;95575;-91
2022/07/31 00:36:42;;;;;;;;;;;24.80;63.60;24.80;99792.00;;;;334229;29;83572;-89
2022/07/31 00:36:54;;;;;;;;;;;24.80;63.60;24.80;99792.00;;;;334772;29;96333;-89
2022/07/31 00:37:05;;;;;;;;;;;24.80;63.60;24.70;99789.00;;;;335566;29;83378;-89
2022/07/31 00:37:18;;;;;;;;;;;24.80;63.70;24.70;99789.00;;;;333549;29;95921;-88
2022/07/31 00:37:29;;;;;;;;;;;24.80;63.70;24.60;99789.00;;;;336704;28;83494;-89
2022/07/31 00:37:41;;;;;;;;;;;24.80;63.80;24.60;99792.00;;;;334751;29;96945;-89
2022/07/31 00:37:53;;;;;;;;;;;24.80;63.70;24.70;99783.00;;;;335486;29;83648;-89
2022/07/31 00:38:25;;;;;;;;;;;24.80;63.70;24.60;99792.00;;;;334751;29;96308;-89
2022/07/31 00:38:38;;;;;;;;;;;24.80;64.00;24.70;99786.00;;;;334149;29;83452;-89
2022/07/31 00:38:50;;;;;;;;;;;24.70;63.90;24.70;99790.00;;;;333546;29;96826;-89
2022/07/31 00:39:02;;;;;;;;;;;24.70;63.70;24.70;99790.00;;;;336882;28;83518;-89
2022/07/31 00:39:14;;;;;;;;;;;24.70;63.70;24.80;99791.00;;;;334618;29;95692;-89
2022/07/31 00:39:26;;;;;;;;;;;24.70;63.70;24.70;99787.00;;;;334209;29;83545;-89
2022/07/31 00:39:37;;;;;;;;;;;24.70;63.80;24.70;99788.00;;;;334928;29;95894;-89
2022/07/31 00:39:49;;;;;;;;;;;24.70;63.80;24.70;99789.00;;;;334262;29;82560;-89
2022/07/31 00:40:01;;;;;;;;;;;24.70;64.00;24.70;99788.00;;;;337358;28;96589;-89
2022/07/31 00:40:14;;;;;;;;;;;24.70;64.10;24.70;99790.00;;;;338166;28;83435;-89
2022/07/31 00:40:26;;;;;;;;;;;24.70;64.10;24.60;99792.00;;;;335894;28;95607;-89
2022/07/31 00:40:45;;;;;;;;;;;24.70;64.10;24.70;99793.00;;;;338217;28;83341;-89
2022/07/31 00:40:57;;;;;;;;;;;24.70;64.10;24.80;99792.00;;;;337511;28;95674;-89
2022/07/31 00:41:09;;;;;;;;;;;24.70;63.90;24.80;99789.00;;;;338048;28;83521;-89
2022/07/31 00:41:21;;;;;;;;;;;24.70;63.90;24.80;99791.00;;;;333167;29;95570;-89
2022/07/31 00:41:44;;;;;;;;;;;24.70;63.80;24.90;99792.00;;;;334249;29;83409;-88
2022/07/31 00:41:56;;;;;;;;;;;24.70;63.90;24.90;99790.00;;;;333414;29;96134;-89
2022/07/31 00:42:21;;;;;;;;;;;24.80;63.90;24.90;99786.00;;;;332950;29;82707;-88
2022/07/31 00:42:33;;;;;;;;;;;24.80;64.50;24.90;99787.00;;;;334721;29;97248;-88
2022/07/31 00:42:45;;;;;;;;;;;24.80;63.80;24.90;99789.00;;;;336504;28;82615;-89
2022/07/31 00:42:57;;;;;;;;;;;24.70;63.80;24.90;99788.00;;;;336035;28;96550;-88
2022/07/31 00:43:08;;;;;;;;;;;24.70;63.70;24.80;99788.00;;;;334248;29;83443;-89
2022/07/31 00:43:20;;;;;;;;;;;24.80;63.90;24.80;99786.00;;;;334530;29;95564;-89
2022/07/31 00:43:32;;;;;;;;;;;24.80;63.80;24.80;99789.00;;;;335218;29;83552;-89
2022/07/31 00:43:44;;;;;;;;;;;24.80;63.70;24.80;99789.00;;;;333494;29;95772;-89
2022/07/31 00:43:56;;;;;;;;;;;24.80;63.90;24.80;99792.00;;;;333044;29;83341;-89
2022/07/31 00:44:10;;;;;;;;;;;24.70;63.70;24.80;99797.00;;;;333345;29;94951;-89
2022/07/31 00:44:23;;;;;;;;;;;24.70;63.80;24.70;99797.00;;;;335526;29;83487;-88
2022/07/31 00:44:35;;;;;;;;;;;24.70;64.00;24.80;99795.00;;;;334800;29;96890;-89
2022/07/31 00:44:49;;;;;;;;;;;24.80;63.90;24.80;99789.00;;;;335408;29;83288;-89
2022/07/31 00:45:01;;;;;;;;;;;24.80;63.90;24.80;99794.00;;;;334885;29;94187;-89
2022/07/31 00:45:13;;;;;;;;;;;24.70;63.90;24.70;99788.00;;;;335684;28;82570;-88
2022/07/31 00:45:26;;;;;;;;;;;24.80;64.10;24.70;99791.00;;;;332054;29;97552;-88
2022/07/31 00:45:42;;;;;;;;;;;24.70;64.10;24.70;99793.00;;;;331731;29;83392;-89
2022/07/31 00:45:56;;;;;;;;;;;24.70;64.00;24.60;99797.00;;;;333509;29;96543;-89
2022/07/31 00:46:09;;;;;;;;;;;24.70;64.00;24.60;99794.00;;;;334245;29;83404;-89
2022/07/31 00:46:25;;;;;;;;;;;24.70;63.80;24.70;99792.00;;;;336185;28;95992;-89
2022/07/31 00:46:37;;;;;;;;;;;24.70;63.80;24.70;99791.00;;;;336801;28;83362;-89
2022/07/31 00:46:50;;;;;;;;;;;24.70;63.90;24.70;99794.00;;;;332162;29;95776;-89
2022/07/31 00:47:03;;;;;;;;;;;24.70;63.90;24.60;99796.00;;;;334310;29;82495;-89
2022/07/31 00:47:16;;;;;;;;;;;24.70;64.10;24.60;99794.00;;;;334724;29;96693;-89
2022/07/31 00:47:27;;;;;;;;;;;24.70;64.40;24.50;99798.00;;;;334217;29;83526;-89
2022/07/31 00:47:40;;;;;;;;;;;24.70;64.40;24.50;99791.00;;;;337424;28;96667;-88
2022/07/31 00:47:53;;;;;;;;;;;24.70;64.60;24.50;99794.00;;;;335527;29;82564;-88
2022/07/31 00:48:06;;;;;;;;;;;24.70;64.50;24.60;99789.00;;;;332280;29;94513;-89
2022/07/31 00:48:18;;;;;;;;;;;24.60;64.40;24.60;99796.00;;;;334254;29;83444;-89
2022/07/31 00:48:31;;;;;;;;;;;24.70;64.30;24.60;99793.00;;;;334911;29;93460;-89
2022/07/31 00:48:44;;;;;;;;;;;24.60;64.30;24.50;99797.00;;;;335475;29;83476;-89
2022/07/31 00:48:55;;;;;;;;;;;24.60;64.50;24.50;99790.00;;;;333346;29;94718;-88
2022/07/31 00:49:10;;;;;;;;;;;24.60;65.20;24.50;99791.00;;;;335521;29;83483;-89
2022/07/31 00:49:23;;;;;;;;;;;24.60;64.50;24.50;99791.00;;;;334793;29;94268;-89
2022/07/31 00:49:35;;;;;;;;;;;24.60;64.60;24.60;99790.00;;;;335470;29;83255;-87
2022/07/31 00:49:48;;;;;;;;;;;24.60;64.30;24.60;99794.00;;;;336198;28;93037;-88
2022/07/31 00:50:00;;;;;;;;;;;24.60;64.30;24.60;99799.00;;;;335563;29;82628;-89
2022/07/31 00:50:12;;;;;;;;;;;24.60;64.30;24.60;99788.00;;;;332164;29;96603;-88
2022/07/31 00:50:24;;;;;;;;;;;24.60;64.20;24.50;99791.00;;;;336806;28;82561;-88
2022/07/31 00:50:36;;;;;;;;;;;24.60;64.60;24.50;99798.00;;;;336051;28;95688;-89
2022/07/31 00:50:49;;;;;;;;;;;24.60;64.80;24.50;99792.00;;;;335534;29;82437;-89
2022/07/31 00:51:01;;;;;;;;;;;24.60;64.90;24.50;99794.00;;;;336044;28;97210;-89
2022/07/31 00:51:13;;;;;;;;;;;24.60;64.70;24.50;99792.00;;;;336833;28;83466;-88
2022/07/31 00:51:25;;;;;;;;;;;24.60;64.70;24.50;99792.00;;;;336038;28;96274;-89
2022/07/31 00:51:37;;;;;;;;;;;24.60;64.80;24.50;99796.00;;;;339444;28;83405;-88
2022/07/31 00:51:50;;;;;;;;;;;24.50;64.70;24.50;99791.00;;;;334812;29;94566;-89
2022/07/31 00:52:02;;;;;;;;;;;24.60;64.90;24.50;99794.00;;;;332996;29;83526;-89
2022/07/31 00:52:14;;;;;;;;;;;24.50;65.50;24.50;99796.00;;;;334778;29;94073;-89
2022/07/31 00:52:26;;;;;;;;;;;24.60;64.90;24.40;99796.00;;;;335491;29;83457;-89
2022/07/31 00:52:38;;;;;;;;;;;24.50;64.90;24.40;99801.00;;;;334879;29;91996;-89
2022/07/31 00:52:50;;;;;;;;;;;24.50;65.10;24.40;99797.00;;;;336559;28;83492;-87
2022/07/31 00:53:02;;;;;;;;;;;24.50;65.00;24.40;99793.00;;;;334575;29;95981;-88
2022/07/31 00:53:14;;;;;;;;;;;24.50;65.00;24.40;99798.00;;;;338231;28;83704;-89
2022/07/31 00:53:26;;;;;;;;;;;24.50;65.30;24.40;99797.00;;;;335981;28;96651;-89
2022/07/31 00:53:38;;;;;;;;;;;24.50;64.90;24.40;99797.00;;;;334195;29;83485;-88
2022/07/31 00:53:49;;;;;;;;;;;24.50;65.00;24.40;99793.00;;;;335909;28;95630;-89
2022/07/31 00:54:07;;;;;;;;;;;24.50;65.30;24.40;99797.00;;;;335478;29;83983;-88
2022/07/31 00:54:19;;;;;;;;;;;24.50;65.50;24.40;99795.00;;;;336110;28;97192;-88
2022/07/31 00:54:34;;;;;;;;;;;24.50;65.40;24.30;99795.00;;;;338185;28;82561;-88
2022/07/31 00:54:46;;;;;;;;;;;24.50;65.40;24.40;99794.00;;;;333356;29;96432;-89
2022/07/31 00:54:57;;;;;;;;;;;24.50;65.50;24.30;99791.00;;;;335489;29;83516;-88
2022/07/31 00:55:09;;;;;;;;;;;24.50;65.50;24.30;99797.00;;;;333515;29;96725;-88
2022/07/31 00:55:21;;;;;;;;;;;24.50;65.40;24.30;99794.00;;;;335436;29;83421;-88
2022/07/31 00:55:33;;;;;;;;;;;24.50;65.50;24.30;99793.00;;;;336081;28;97395;-88
2022/07/31 00:56:02;;;;;;;;;;;24.50;65.50;24.30;99794.00;;;;334113;29;83920;-88
2022/07/31 00:56:14;;;;;;;;;;;24.50;65.80;24.20;99794.00;;;;333485;29;96975;-89
2022/07/31 00:56:26;;;;;;;;;;;24.50;65.80;24.20;99797.00;;;;334291;29;83372;-88
2022/07/31 00:56:38;;;;;;;;;;;24.50;65.70;24.30;99795.00;;;;333430;29;96629;-88
2022/07/31 00:56:50;;;;;;;;;;;24.50;65.60;24.30;99797.00;;;;337744;28;83528;-88
2022/07/31 00:57:02;;;;;;;;;;;24.50;65.20;24.30;99793.00;;;;333498;29;94681;-88
2022/07/31 00:57:14;;;;;;;;;;;24.50;65.30;24.30;99801.00;;;;332938;29;83559;-88
2022/07/31 00:57:26;;;;;;;;;;;24.50;65.80;24.30;99800.00;;;;333383;29;97132;-88
2022/07/31 00:57:38;;;;;;;;;;;24.50;65.70;24.30;99804.00;;;;332936;29;83461;-88
2022/07/31 00:57:50;;;;;;;;;;;24.40;65.80;24.30;99801.00;;;;333597;29;93830;-88
2022/07/31 00:58:02;;;;;;;;;;;24.40;65.80;24.20;99803.00;;;;332856;29;83503;-88
2022/07/31 00:58:14;;;;;;;;;;;24.40;65.90;24.20;99801.00;;;;334860;29;95317;-88
2022/07/31 00:58:26;;;;;;;;;;;24.40;66.00;24.20;99800.00;;;;334193;29;83476;-88
2022/07/31 00:58:37;;;;;;;;;;;24.40;65.90;24.30;99805.00;;;;333364;29;97403;-88
2022/07/31 00:58:50;;;;;;;;;;;24.40;65.70;24.20;99805.00;;;;336966;28;83347;-88
2022/07/31 00:59:02;;;;;;;;;;;24.40;65.70;24.20;99800.00;;;;335065;29;95908;-88
2022/07/31 00:59:14;;;;;;;;;;;24.40;65.90;24.20;99797.00;;;;335528;29;83421;-88
2022/07/31 00:59:26;;;;;;;;;;;24.40;66.00;24.30;99796.00;;;;333646;29;95379;-89
2022/07/31 00:59:38;;;;;;;;;;;24.40;65.80;24.30;99796.00;;;;334553;29;82616;-88
2022/07/31 00:59:50;;;;;;;;;;;24.40;65.50;24.30;99803.00;;;;332548;29;96508;-88
2022/07/31 01:00:03;;;;;;;;;;;24.40;65.40;24.30;99800.00;;;;333143;29;83509;-88
2022/07/31 01:00:15;;;;;;;;;;;24.40;65.20;24.30;99800.00;;;;333805;29;97205;-88
2022/07/31 01:00:27;;;;;;;;;;;24.40;65.20;24.30;99796.00;;;;334496;29;83475;-88
2022/07/31 01:00:39;;;;;;;;;;;24.40;65.80;24.20;99794.00;;;;331682;29;92795;-88
2022/07/31 01:00:51;;;;;;;;;;;24.40;65.90;24.10;99803.00;;;;334603;29;83470;-88
2022/07/31 01:01:03;;;;;;;;;;;24.30;65.90;24.10;99796.00;;;;333641;29;94579;-89
2022/07/31 01:01:15;;;;;;;;;;;24.30;66.00;24.20;99793.00;;;;332014;29;82563;-88
2022/07/31 01:01:27;;;;;;;;;;;24.30;65.90;24.20;99796.00;;;;333714;29;95628;-88
2022/07/31 01:01:38;;;;;;;;;;;24.30;65.70;24.20;99796.00;;;;333326;29;82548;-88
2022/07/31 01:01:50;;;;;;;;;;;24.30;65.80;24.30;99793.00;;;;332519;29;95838;-88
2022/07/31 01:02:02;;;;;;;;;;;24.30;65.50;24.20;99793.00;;;;335750;29;82521;-88